Time;durP1;ratioP1;P1;durP2;ratioP2;P2;SDS_P1;SDS_P2;PMS_P1;PMS_P2;Temp;Humidity;BMP_temperature;BMP_pressure;BME280_temperature;BME280_humidity;BME280_pressure;Samples;Min_cycle;Max_cycle;Signal;HPM_P1;HPM_P2
2023/08/17 00:00:18;;;;;;;25.97;18.73;;;23.10;99.90;;;;;;4818364;29;20202;-80
2023/08/17 00:02:43;;;;;;;19.73;17.60;;;23.00;99.90;;;;;;4818386;29;20394;-80
2023/08/17 00:05:10;;;;;;;19.67;17.50;;;23.00;99.90;;;;;;4817367;29;20445;-83
2023/08/17 00:07:36;;;;;;;18.20;16.53;;;23.00;99.90;;;;;;4818421;29;20452;-83
2023/08/17 00:10:02;;;;;;;17.63;16.03;;;23.00;99.90;;;;;;4817187;29;20960;-80
2023/08/17 00:12:28;;;;;;;17.47;15.67;;;23.00;99.90;;;;;;4818524;29;20455;-80
2023/08/17 00:14:54;;;;;;;19.43;15.03;;;23.00;99.90;;;;;;4832233;29;20463;-83
2023/08/17 00:17:19;;;;;;;15.23;13.83;;;22.90;99.90;;;;;;4818391;29;20193;-83
2023/08/17 00:19:45;;;;;;;16.43;14.77;;;22.90;99.90;;;;;;4818253;29;20201;-83
2023/08/17 00:22:11;;;;;;;15.30;13.70;;;22.90;99.90;;;;;;4817338;29;20600;-83
2023/08/17 00:24:37;;;;;;;15.40;14.00;;;22.90;99.90;;;;;;4817344;29;20470;-81
2023/08/17 00:27:03;;;;;;;15.87;14.23;;;23.00;99.90;;;;;;4818485;29;20974;-83
2023/08/17 00:29:30;;;;;;;18.83;15.07;;;22.90;99.90;;;;;;4817984;29;20270;-80
2023/08/17 00:31:55;;;;;;;16.10;14.50;;;23.00;99.90;;;;;;4816775;29;20493;-80
2023/08/17 00:34:21;;;;;;;15.90;14.20;;;23.00;99.90;;;;;;4817596;29;20473;-83
2023/08/17 00:36:47;;;;;;;16.17;14.57;;;23.00;99.90;;;;;;4817905;29;20187;-84
2023/08/17 00:39:14;;;;;;;16.03;14.53;;;23.00;99.90;;;;;;4817947;29;20255;-83
2023/08/17 00:41:40;;;;;;;16.17;14.53;;;23.00;99.90;;;;;;4816553;29;20212;-81
2023/08/17 00:44:06;;;;;;;15.27;13.87;;;23.00;99.90;;;;;;4817888;29;20920;-81
2023/08/17 00:46:31;;;;;;;18.07;16.10;;;23.00;99.90;;;;;;4818203;29;20221;-84
2023/08/17 00:48:58;;;;;;;15.40;14.00;;;23.00;99.90;;;;;;4817732;29;20701;-83
2023/08/17 00:51:24;;;;;;;16.70;15.00;;;23.00;99.90;;;;;;4816614;29;20805;-83
2023/08/17 00:53:57;;;;;;;17.13;15.43;;;23.00;99.90;;;;;;4817317;29;20517;-80
2023/08/17 00:56:23;;;;;;;15.50;13.70;;;23.00;99.90;;;;;;4817997;29;20448;-80
2023/08/17 00:58:50;;;;;;;16.90;15.20;;;23.00;99.90;;;;;;4816364;29;20432;-81
2023/08/17 01:01:16;;;;;;;16.57;14.93;;;23.00;99.90;;;;;;4816214;29;20241;-80
2023/08/17 01:03:42;;;;;;;15.50;14.10;;;23.00;99.90;;;;;;4816520;29;20815;-80
2023/08/17 01:06:09;;;;;;;14.90;13.60;;;23.00;99.90;;;;;;4816047;29;20451;-83
2023/08/17 01:08:38;;;;;;;16.03;14.33;;;23.00;99.90;;;;;;4817564;29;20290;-83
2023/08/17 01:11:22;;;;;;;15.03;13.50;;;23.00;99.90;;;;;;4817850;29;20429;-84
2023/08/17 01:13:51;;;;;;;14.40;13.10;;;23.00;99.90;;;;;;4816263;29;21003;-80
2023/08/17 01:16:26;;;;;;;15.53;13.23;;;23.00;99.90;;;;;;4817541;29;20525;-80
2023/08/17 01:18:52;;;;;;;15.30;13.70;;;23.00;99.90;;;;;;4817120;29;20660;-79
2023/08/17 01:21:23;;;;;;;16.40;14.80;;;23.00;99.90;;;;;;4816243;29;20477;-80
2023/08/17 01:23:50;;;;;;;14.50;13.10;;;23.00;99.90;;;;;;4811418;29;20489;-80
2023/08/17 01:26:15;;;;;;;14.27;12.87;;;23.00;99.90;;;;;;4816461;29;20446;-83
2023/08/17 01:28:47;;;;;;;15.37;13.87;;;23.00;99.90;;;;;;4816102;29;20429;-81
2023/08/17 01:31:24;;;;;;;15.13;13.63;;;23.00;99.90;;;;;;4817344;29;20657;-80
2023/08/17 01:33:56;;;;;;;14.80;13.30;;;23.00;99.90;;;;;;4816996;29;20761;-80
2023/08/17 01:36:42;;;;;;;15.03;13.63;;;23.00;99.90;;;;;;4816812;29;20468;-81
2023/08/17 01:39:09;;;;;;;15.07;13.77;;;23.00;99.90;;;;;;4817429;29;20413;-80
2023/08/17 01:41:37;;;;;;;16.10;14.40;;;23.00;99.90;;;;;;4815264;29;20492;-83
2023/08/17 01:44:04;;;;;;;16.63;14.80;;;23.00;99.90;;;;;;4817010;29;20433;-83
2023/08/17 01:46:35;;;;;;;15.57;13.90;;;22.90;99.90;;;;;;4815542;29;20438;-80
2023/08/17 01:49:00;;;;;;;14.70;13.27;;;22.90;99.90;;;;;;4813864;29;20772;-80
2023/08/17 01:51:26;;;;;;;15.47;13.93;;;22.90;99.90;;;;;;4815367;29;20450;-83
2023/08/17 01:53:52;;;;;;;13.90;12.50;;;22.90;99.90;;;;;;4813371;29;21037;-83
2023/08/17 01:56:18;;;;;;;14.40;13.07;;;22.80;99.90;;;;;;4814023;29;20297;-83
2023/08/17 01:58:44;;;;;;;14.50;13.00;;;22.80;99.90;;;;;;4815281;29;20215;-81
2023/08/17 02:01:09;;;;;;;14.50;13.00;;;22.80;99.90;;;;;;4814814;29;20631;-81
2023/08/17 02:03:35;;;;;;;14.77;13.37;;;22.80;99.90;;;;;;4816774;29;20406;-82
2023/08/17 02:06:01;;;;;;;13.50;12.20;;;22.80;99.90;;;;;;4816829;29;20209;-83
2023/08/17 02:08:27;;;;;;;14.00;12.60;;;22.70;99.90;;;;;;4815737;29;20687;-80
2023/08/17 02:10:53;;;;;;;13.70;12.40;;;22.70;99.90;;;;;;4816835;29;20469;-83
2023/08/17 02:13:19;;;;;;;13.40;12.00;;;22.70;99.90;;;;;;4815629;29;20356;-83
2023/08/17 02:15:46;;;;;;;13.83;11.70;;;22.70;99.90;;;;;;4816501;29;20944;-83
2023/08/17 02:18:11;;;;;;;13.97;12.57;;;22.70;99.90;;;;;;4815591;29;20648;-80
2023/08/17 02:20:37;;;;;;;13.33;12.03;;;22.70;99.90;;;;;;4816937;29;20517;-80
2023/08/17 02:23:03;;;;;;;12.77;11.30;;;22.70;99.90;;;;;;4830414;29;20218;-84
2023/08/17 02:25:35;;;;;;;12.93;11.57;;;22.70;99.90;;;;;;4815257;29;20206;-84
2023/08/17 02:28:04;;;;;;;13.90;12.30;;;22.60;99.90;;;;;;4815934;29;20914;-80
2023/08/17 02:30:29;;;;;;;13.47;12.13;;;22.60;99.90;;;;;;4816538;29;20453;-79
2023/08/17 02:32:55;;;;;;;13.53;12.20;;;22.60;99.90;;;;;;4815364;29;20477;-82
2023/08/17 02:35:21;;;;;;;13.87;12.57;;;22.60;99.90;;;;;;4816829;29;20218;-83
2023/08/17 02:37:46;;;;;;;13.30;11.93;;;22.60;99.90;;;;;;4814713;29;20182;-80
2023/08/17 02:40:12;;;;;;;12.20;11.00;;;22.60;99.90;;;;;;4816538;29;20309;-83
2023/08/17 02:42:39;;;;;;;12.53;11.30;;;22.60;99.90;;;;;;4816378;29;20637;-83
2023/08/17 02:45:06;;;;;;;13.13;11.77;;;22.60;99.90;;;;;;4815056;29;20210;-83
2023/08/17 02:47:32;;;;;;;14.40;11.83;;;22.60;99.90;;;;;;4817049;29;20442;-83
2023/08/17 02:49:57;;;;;;;13.77;11.20;;;22.60;99.90;;;;;;4820039;29;20939;-80
2023/08/17 02:52:23;;;;;;;12.43;11.23;;;22.60;99.90;;;;;;4819404;29;20266;-83
2023/08/17 02:54:49;;;;;;;13.87;12.57;;;22.50;99.90;;;;;;4818154;29;20363;-83
2023/08/17 02:57:14;;;;;;;13.90;12.13;;;22.50;99.90;;;;;;4819688;29;20182;-83
2023/08/17 02:59:40;;;;;;;14.00;11.90;;;22.50;99.90;;;;;;4818376;29;20647;-83
2023/08/17 03:02:05;;;;;;;12.80;11.60;;;22.50;99.90;;;;;;4819609;29;20189;-81
2023/08/17 03:04:32;;;;;;;13.80;12.40;;;22.50;99.90;;;;;;4817770;29;20189;-80
2023/08/17 03:06:58;;;;;;;14.50;13.10;;;22.50;99.90;;;;;;4819814;29;20186;-83
2023/08/17 03:09:24;;;;;;;14.37;12.87;;;22.50;99.90;;;;;;4819682;29;20410;-84
2023/08/17 03:11:49;;;;;;;14.07;12.67;;;22.50;99.90;;;;;;4818079;29;20186;-80
2023/08/17 03:14:15;;;;;;;14.63;12.50;;;22.50;99.90;;;;;;4817816;29;20309;-82
2023/08/17 03:16:41;;;;;;;14.17;12.77;;;22.50;99.90;;;;;;4817726;29;20217;-83
2023/08/17 03:19:07;;;;;;;16.70;13.10;;;22.50;99.90;;;;;;4819047;29;20565;-80
2023/08/17 03:21:34;;;;;;;14.47;12.97;;;22.50;99.90;;;;;;4819261;29;20373;-80
2023/08/17 03:23:59;;;;;;;15.53;13.57;;;22.50;99.90;;;;;;4819341;29;20718;-82
2023/08/17 03:26:25;;;;;;;15.07;13.60;;;22.50;99.90;;;;;;4817783;29;20465;-80
2023/08/17 03:28:51;;;;;;;13.80;12.50;;;22.50;99.90;;;;;;4817956;29;20716;-80
2023/08/17 03:31:17;;;;;;;17.90;13.53;;;22.50;99.90;;;;;;4818828;29;20220;-83
2023/08/17 03:33:42;;;;;;;15.27;13.70;;;22.50;99.90;;;;;;4817495;29;20222;-79
2023/08/17 03:36:08;;;;;;;14.63;13.07;;;22.50;99.90;;;;;;4818755;29;20206;-82
2023/08/17 03:38:34;;;;;;;15.17;13.67;;;22.50;99.90;;;;;;4817156;29;20389;-79
2023/08/17 03:40:59;;;;;;;14.20;12.90;;;22.50;99.90;;;;;;4818133;29;20202;-80
2023/08/17 03:43:26;;;;;;;14.30;12.90;;;22.50;99.90;;;;;;4817603;29;20190;-81
2023/08/17 03:45:52;;;;;;;14.90;13.40;;;22.60;99.90;;;;;;4817085;29;20214;-81
2023/08/17 03:48:18;;;;;;;15.17;12.50;;;22.50;99.90;;;;;;4819168;29;20432;-83
2023/08/17 03:50:43;;;;;;;14.57;13.03;;;22.50;99.90;;;;;;4818368;29;20213;-82
2023/08/17 03:53:09;;;;;;;16.43;12.90;;;22.60;99.90;;;;;;4817860;29;20237;-80
2023/08/17 03:55:34;;;;;;;14.30;12.80;;;22.60;99.90;;;;;;4818116;29;20266;-79
2023/08/17 03:58:00;;;;;;;18.10;12.77;;;22.50;99.90;;;;;;4831318;29;20232;-80
2023/08/17 04:00:26;;;;;;;14.50;12.77;;;22.50;99.90;;;;;;4818436;29;20213;-83
2023/08/17 04:02:51;;;;;;;13.50;12.10;;;22.50;99.90;;;;;;4818286;29;20458;-82
2023/08/17 04:05:17;;;;;;;14.27;12.87;;;22.50;99.90;;;;;;4818560;29;20201;-81
2023/08/17 04:07:42;;;;;;;13.27;11.97;;;22.50;99.90;;;;;;4816338;29;20194;-82
2023/08/17 04:10:08;;;;;;;15.50;12.97;;;22.50;99.90;;;;;;4817049;29;20214;-82
2023/08/17 04:12:34;;;;;;;13.73;11.07;;;22.60;99.90;;;;;;4816924;29;20272;-80
2023/08/17 04:15:00;;;;;;;14.30;12.90;;;22.50;99.90;;;;;;4818110;29;21273;-82
2023/08/17 04:17:26;;;;;;;13.87;12.40;;;22.60;99.90;;;;;;4817951;29;20186;-79
2023/08/17 04:19:52;;;;;;;13.57;12.17;;;22.60;99.90;;;;;;4816460;29;20247;-83
2023/08/17 04:22:18;;;;;;;13.17;11.83;;;22.60;99.90;;;;;;4832078;29;20986;-80
2023/08/17 04:24:44;;;;;;;12.77;11.43;;;22.60;99.90;;;;;;4818181;29;20445;-82
2023/08/17 04:27:09;;;;;;;13.20;11.83;;;22.60;99.90;;;;;;4817964;29;20194;-79
2023/08/17 04:29:37;;;;;;;12.00;10.90;;;22.60;99.90;;;;;;4820371;29;20218;-80
2023/08/17 04:32:03;;;;;;;12.63;11.27;;;22.70;99.90;;;;;;4835985;29;20648;-79
2023/08/17 04:34:29;;;;;;;14.17;10.93;;;22.70;99.90;;;;;;4836076;29;20534;-80
2023/08/17 04:36:55;;;;;;;11.80;10.60;;;22.70;99.90;;;;;;4835875;29;20441;-82
2023/08/17 04:39:20;;;;;;;13.30;12.10;;;22.70;99.90;;;;;;4835878;29;20193;-79
2023/08/17 04:41:46;;;;;;;13.30;12.00;;;22.80;99.90;;;;;;4835491;29;20181;-79
2023/08/17 04:44:12;;;;;;;12.10;10.87;;;22.80;99.90;;;;;;4836418;29;20182;-79
2023/08/17 04:46:37;;;;;;;13.33;11.77;;;22.80;99.90;;;;;;4817586;29;20206;-80
2023/08/17 04:49:03;;;;;;;14.03;12.70;;;22.80;99.90;;;;;;4816172;29;20338;-80
2023/08/17 04:51:29;;;;;;;14.00;12.60;;;22.80;99.90;;;;;;4817590;29;20216;-80
2023/08/17 04:53:55;;;;;;;13.23;12.03;;;22.80;99.90;;;;;;4817539;29;20650;-80
2023/08/17 04:56:20;;;;;;;14.50;12.87;;;22.90;99.90;;;;;;4817391;29;20241;-82
2023/08/17 04:58:46;;;;;;;14.07;12.73;;;22.90;99.90;;;;;;4817109;29;20249;-79
2023/08/17 05:01:12;;;;;;;13.77;12.37;;;22.90;99.90;;;;;;4815958;29;20241;-80
2023/08/17 05:03:37;;;;;;;13.57;12.27;;;23.00;99.90;;;;;;4815757;29;20187;-79
2023/08/17 05:06:03;;;;;;;17.33;12.80;;;23.00;99.90;;;;;;4817275;29;20572;-82
2023/08/17 05:08:29;;;;;;;12.67;11.47;;;23.10;99.90;;;;;;4817690;29;20190;-80
2023/08/17 05:10:55;;;;;;;14.70;13.30;;;23.10;99.90;;;;;;4814878;29;20241;-80
2023/08/17 05:13:20;;;;;;;14.67;12.43;;;23.10;99.90;;;;;;4817299;29;20581;-81
2023/08/17 05:15:46;;;;;;;12.63;11.53;;;23.20;99.90;;;;;;4815389;29;20217;-79
2023/08/17 05:18:12;;;;;;;15.03;12.53;;;23.20;99.90;;;;;;4816148;29;20292;-82
2023/08/17 05:20:37;;;;;;;14.17;12.47;;;23.20;99.90;;;;;;4815301;29;20435;-81
2023/08/17 05:23:04;;;;;;;14.00;12.60;;;23.30;99.90;;;;;;4816954;29;20193;-82
2023/08/17 05:25:29;;;;;;;15.47;12.50;;;23.30;99.90;;;;;;4813852;29;20321;-82
2023/08/17 05:27:55;;;;;;;13.23;11.93;;;23.40;99.90;;;;;;4816249;29;20526;-83
2023/08/17 05:30:21;;;;;;;13.60;11.93;;;23.40;99.90;;;;;;4815549;29;20294;-79
2023/08/17 05:32:46;;;;;;;13.07;11.77;;;23.40;99.90;;;;;;4816147;29;20187;-83
2023/08/17 05:35:12;;;;;;;13.53;12.07;;;23.40;99.90;;;;;;4812847;29;20221;-83
2023/08/17 05:37:38;;;;;;;14.00;12.70;;;23.40;99.90;;;;;;4815207;29;20189;-82
2023/08/17 05:40:05;;;;;;;14.13;12.00;;;23.40;99.90;;;;;;4811520;29;20211;-82
2023/08/17 05:42:30;;;;;;;13.50;12.27;;;23.50;99.90;;;;;;4812548;29;20274;-81
2023/08/17 05:44:56;;;;;;;13.60;12.40;;;23.50;99.90;;;;;;4814497;29;20786;-80
2023/08/17 05:47:22;;;;;;;13.20;11.27;;;23.60;99.90;;;;;;4803216;29;20334;-79
2023/08/17 05:49:47;;;;;;;13.43;12.13;;;23.60;99.90;;;;;;4799848;29;20230;-80
2023/08/17 05:52:13;;;;;;;12.87;11.47;;;23.70;99.90;;;;;;4807138;29;20220;-80
2023/08/17 05:54:39;;;;;;;13.20;11.93;;;23.70;99.90;;;;;;4813551;29;20261;-80
2023/08/17 05:57:05;;;;;;;14.90;11.40;;;23.80;99.90;;;;;;4808817;29;20283;-82
2023/08/17 05:59:30;;;;;;;13.33;11.80;;;23.80;99.90;;;;;;4812162;29;20179;-79
2023/08/17 06:01:56;;;;;;;12.80;11.50;;;23.80;99.90;;;;;;4809038;29;20187;-80
2023/08/17 06:04:22;;;;;;;13.43;12.13;;;23.80;99.90;;;;;;4808864;29;20291;-80
2023/08/17 06:06:47;;;;;;;14.10;12.90;;;23.90;99.90;;;;;;4824086;29;20188;-82
2023/08/17 06:09:14;;;;;;;15.90;11.43;;;23.90;99.90;;;;;;4810468;29;20189;-81
2023/08/17 06:11:40;;;;;;;13.50;12.10;;;24.00;99.90;;;;;;4810457;29;20713;-83
2023/08/17 06:14:05;;;;;;;13.50;12.20;;;24.00;99.90;;;;;;4811719;29;20497;-82
2023/08/17 06:16:31;;;;;;;13.23;12.13;;;24.10;99.90;;;;;;4811380;29;20223;-79
2023/08/17 06:18:57;;;;;;;13.27;11.97;;;24.10;99.90;;;;;;4812090;29;20425;-80
2023/08/17 06:21:23;;;;;;;13.50;12.20;;;24.10;99.90;;;;;;4812720;29;20246;-83
2023/08/17 06:23:48;;;;;;;15.10;12.30;;;24.10;99.90;;;;;;4829545;29;20200;-80
2023/08/17 06:26:14;;;;;;;12.53;11.30;;;24.10;99.90;;;;;;4830803;29;20197;-83
2023/08/17 06:28:40;;;;;;;13.10;12.00;;;24.20;99.90;;;;;;4816173;29;20288;-81
2023/08/17 06:31:05;;;;;;;12.50;11.40;;;24.20;99.90;;;;;;4821065;29;20476;-83
2023/08/17 06:33:31;;;;;;;14.00;12.63;;;24.30;99.90;;;;;;4814768;29;20226;-81
2023/08/17 06:35:57;;;;;;;13.23;12.13;;;24.30;99.90;;;;;;4815122;29;20546;-80
2023/08/17 06:38:22;;;;;;;12.73;11.53;;;24.30;99.90;;;;;;4813626;29;20660;-83
2023/08/17 06:40:48;;;;;;;13.00;11.83;;;24.40;99.90;;;;;;4814579;29;20757;-80
2023/08/17 06:43:14;;;;;;;12.00;11.00;;;24.40;99.90;;;;;;4813003;29;20280;-83
2023/08/17 06:45:39;;;;;;;12.33;11.07;;;24.50;99.90;;;;;;4814302;29;20217;-83
2023/08/17 06:48:06;;;;;;;11.97;10.87;;;24.50;99.90;;;;;;4828066;29;20511;-80
2023/08/17 06:50:31;;;;;;;11.33;10.33;;;24.60;99.90;;;;;;4826124;29;20264;-84
2023/08/17 06:52:57;;;;;;;12.63;11.33;;;24.60;99.90;;;;;;4813606;29;20484;-80
2023/08/17 06:55:23;;;;;;;13.30;12.00;;;24.70;99.90;;;;;;4811665;29;20391;-81
2023/08/17 06:57:51;;;;;;;12.00;10.90;;;24.80;99.90;;;;;;4829051;29;20263;-80
2023/08/17 07:00:20;;;;;;;12.33;11.17;;;24.80;99.90;;;;;;4822135;29;20370;-83
2023/08/17 07:02:47;;;;;;;13.10;12.07;;;24.90;99.90;;;;;;4813590;29;20810;-81
2023/08/17 07:05:14;;;;;;;12.60;11.30;;;24.90;99.90;;;;;;4808437;29;21175;-83
2023/08/17 07:07:40;;;;;;;12.50;11.40;;;25.00;99.90;;;;;;4812588;29;20480;-81
2023/08/17 07:10:07;;;;;;;12.90;11.80;;;25.00;99.90;;;;;;4814517;29;20741;-83
2023/08/17 07:12:32;;;;;;;12.90;11.70;;;25.20;99.90;;;;;;4813771;29;20280;-84
2023/08/17 07:14:58;;;;;;;13.60;12.20;;;25.20;99.90;;;;;;4829127;29;20708;-84
2023/08/17 07:17:24;;;;;;;12.53;11.43;;;25.30;99.90;;;;;;4812620;29;20209;-84
2023/08/17 07:19:49;;;;;;;12.23;11.10;;;25.30;99.90;;;;;;4815262;29;20216;-84
2023/08/17 07:22:16;;;;;;;13.90;11.83;;;25.40;99.90;;;;;;4813854;29;20182;-81
2023/08/17 07:24:43;;;;;;;12.27;11.10;;;25.50;99.90;;;;;;4813944;29;20266;-81
2023/08/17 07:27:09;;;;;;;13.67;12.17;;;25.60;99.90;;;;;;4809959;29;20460;-84
2023/08/17 07:29:34;;;;;;;12.77;11.50;;;25.60;99.90;;;;;;4808801;29;20457;-84
2023/08/17 07:32:01;;;;;;;13.00;11.90;;;25.70;99.90;;;;;;4811550;29;20178;-84
2023/08/17 07:34:30;;;;;;;12.43;11.33;;;25.70;99.90;;;;;;4810348;29;20287;-81
2023/08/17 07:36:55;;;;;;;12.37;11.30;;;25.70;99.90;;;;;;4810240;29;20520;-84
2023/08/17 07:39:21;;;;;;;12.77;11.50;;;25.70;99.90;;;;;;4812166;29;20497;-80
2023/08/17 07:41:47;;;;;;;13.00;11.97;;;25.70;99.90;;;;;;4807734;29;20411;-84
2023/08/17 07:44:12;;;;;;;13.80;12.70;;;25.80;99.90;;;;;;4810127;29;20436;-81
2023/08/17 07:46:38;;;;;;;12.60;11.60;;;25.80;99.90;;;;;;4811529;29;20220;-81
2023/08/17 07:49:04;;;;;;;12.83;11.73;;;25.90;99.90;;;;;;4810595;29;20224;-81
2023/08/17 07:51:31;;;;;;;12.67;11.67;;;25.90;99.90;;;;;;4811061;29;20301;-84
2023/08/17 07:53:57;;;;;;;13.40;12.20;;;26.00;99.90;;;;;;4809322;29;20252;-84
2023/08/17 07:56:23;;;;;;;12.63;11.63;;;26.10;99.90;;;;;;4809063;29;20663;-84
2023/08/17 07:58:48;;;;;;;12.87;11.57;;;26.10;99.90;;;;;;4809862;29;20717;-81
2023/08/17 08:01:14;;;;;;;12.70;11.70;;;26.10;99.90;;;;;;4823645;29;20212;-81
2023/08/17 08:03:40;;;;;;;11.87;10.87;;;26.20;99.90;;;;;;4825066;29;20758;-83
2023/08/17 08:06:06;;;;;;;12.60;10.97;;;26.20;99.90;;;;;;4810188;29;20651;-81
2023/08/17 08:08:31;;;;;;;13.07;11.77;;;26.30;99.90;;;;;;4812784;29;20756;-81
2023/08/17 08:10:58;;;;;;;13.10;11.90;;;26.20;99.90;;;;;;4813239;29;20432;-83
2023/08/17 08:13:24;;;;;;;13.03;12.03;;;26.20;99.90;;;;;;4812119;29;20708;-81
2023/08/17 08:15:50;;;;;;;12.53;11.43;;;26.30;99.90;;;;;;4813011;29;20581;-81
2023/08/17 08:18:16;;;;;;;12.50;11.30;;;26.30;99.90;;;;;;4814434;29;20429;-83
2023/08/17 08:20:42;;;;;;;12.67;11.47;;;26.30;99.90;;;;;;4815605;29;21038;-81
2023/08/17 08:23:08;;;;;;;12.07;11.03;;;26.40;99.90;;;;;;4811363;29;20186;-83
2023/08/17 08:25:33;;;;;;;12.40;11.40;;;26.40;99.90;;;;;;4813129;29;20201;-84
2023/08/17 08:27:59;;;;;;;11.87;10.80;;;26.50;99.90;;;;;;4813742;29;20242;-83
2023/08/17 08:30:25;;;;;;;13.37;12.17;;;26.60;99.90;;;;;;4796995;29;20222;-84
2023/08/17 08:32:50;;;;;;;12.23;11.23;;;26.60;99.90;;;;;;4795443;29;20557;-83
2023/08/17 08:35:16;;;;;;;12.23;11.13;;;26.70;99.90;;;;;;4795649;29;20230;-84
2023/08/17 08:37:42;;;;;;;12.67;11.40;;;26.70;99.90;;;;;;4795534;29;20203;-81
2023/08/17 08:40:14;;;;;;;13.00;11.77;;;26.70;99.90;;;;;;4797385;29;20206;-81
2023/08/17 08:42:41;;;;;;;13.90;12.40;;;26.70;99.90;;;;;;4797292;29;20190;-83
2023/08/17 08:45:07;;;;;;;13.00;11.90;;;26.80;99.90;;;;;;4795740;29;20486;-81
2023/08/17 08:47:35;;;;;;;14.53;13.03;;;26.90;99.90;;;;;;4795850;29;20426;-81
2023/08/17 08:50:03;;;;;;;14.70;13.40;;;26.90;99.90;;;;;;4798317;29;20446;-80
2023/08/17 08:52:42;;;;;;;14.00;12.83;;;26.90;99.90;;;;;;4796873;29;20482;-80
2023/08/17 08:55:12;;;;;;;12.73;11.23;;;26.80;99.90;;;;;;4839615;29;20496;-83
2023/08/17 08:57:39;;;;;;;13.30;12.20;;;26.80;99.90;;;;;;4849660;29;20441;-81
2023/08/17 09:00:07;;;;;;;13.80;12.50;;;26.80;99.90;;;;;;4835366;29;20438;-83
2023/08/17 09:02:34;;;;;;;32.17;14.73;;;26.80;99.90;;;;;;4834154;29;20429;-84
2023/08/17 09:05:00;;;;;;;27.57;14.13;;;26.90;99.90;;;;;;4832843;29;20449;-83
2023/08/17 09:07:28;;;;;;;13.30;11.90;;;27.00;99.90;;;;;;4848048;29;20908;-82
2023/08/17 09:09:55;;;;;;;13.53;12.13;;;27.00;99.90;;;;;;4835837;29;20457;-80
2023/08/17 09:12:21;;;;;;;13.13;12.03;;;27.10;99.90;;;;;;4814744;29;20462;-80
2023/08/17 09:14:47;;;;;;;12.73;11.67;;;27.10;99.90;;;;;;4811525;29;20478;-83
2023/08/17 09:17:13;;;;;;;12.83;11.50;;;27.20;99.90;;;;;;4799062;29;20437;-83
2023/08/17 09:19:38;;;;;;;12.70;11.60;;;27.30;99.90;;;;;;4797580;29;20604;-80
2023/08/17 09:22:04;;;;;;;13.53;12.43;;;27.40;99.90;;;;;;4795549;29;20192;-83
2023/08/17 09:24:39;;;;;;;12.07;10.93;;;27.40;99.90;;;;;;4796940;29;20514;-81
2023/08/17 09:27:05;;;;;;;13.03;11.93;;;27.40;99.90;;;;;;4796404;29;20443;-83
2023/08/17 09:29:36;;;;;;;13.10;11.73;;;27.50;99.90;;;;;;4796179;29;20802;-81
2023/08/17 09:32:06;;;;;;;12.60;11.53;;;27.50;99.90;;;;;;4796060;29;20222;-81
2023/08/17 09:34:32;;;;;;;12.10;10.93;;;27.60;99.90;;;;;;4795835;29;21004;-82
2023/08/17 09:37:07;;;;;;;12.47;11.33;;;27.60;99.90;;;;;;4794809;29;20738;-83
2023/08/17 09:39:33;;;;;;;12.00;11.10;;;27.70;99.90;;;;;;4796349;29;20415;-83
2023/08/17 09:42:00;;;;;;;12.90;11.90;;;27.80;99.90;;;;;;4797177;29;20794;-81
2023/08/17 09:44:26;;;;;;;12.47;11.37;;;27.90;99.90;;;;;;4796063;29;20183;-81
2023/08/17 09:46:55;;;;;;;12.60;11.50;;;27.90;99.90;;;;;;4795768;29;21002;-83
2023/08/17 09:49:23;;;;;;;12.50;11.30;;;27.90;99.90;;;;;;4796559;29;20592;-81
2023/08/17 09:51:49;;;;;;;11.70;10.60;;;27.80;99.90;;;;;;4797559;29;20953;-83
2023/08/17 09:54:24;;;;;;;10.70;9.80;;;27.90;99.90;;;;;;4796620;29;20503;-82
2023/08/17 09:56:53;;;;;;;12.13;11.13;;;27.80;99.90;;;;;;4797444;29;20183;-80
2023/08/17 09:59:19;;;;;;;12.97;11.67;;;27.80;99.90;;;;;;4802106;29;20432;-83
2023/08/17 10:01:51;;;;;;;12.60;11.50;;;27.70;99.90;;;;;;4827999;29;20489;-83
2023/08/17 10:04:22;;;;;;;12.63;11.53;;;27.70;99.90;;;;;;4827891;29;20448;-80
2023/08/17 10:07:03;;;;;;;13.43;12.33;;;27.70;99.90;;;;;;4796662;29;20427;-81
2023/08/17 10:09:36;;;;;;;13.87;12.77;;;27.70;99.90;;;;;;4795827;29;20495;-83
2023/08/17 10:12:09;;;;;;;12.67;11.77;;;27.70;99.90;;;;;;4812157;29;20529;-83
2023/08/17 10:14:46;;;;;;;12.83;11.53;;;27.70;99.90;;;;;;4813196;29;20530;-83
2023/08/17 10:17:13;;;;;;;12.80;11.70;;;27.80;99.90;;;;;;4810766;29;20463;-80
2023/08/17 10:19:51;;;;;;;14.20;12.90;;;27.90;99.90;;;;;;4809828;29;20443;-84
2023/08/17 10:22:20;;;;;;;13.30;12.20;;;27.90;99.90;;;;;;4821197;29;20593;-84
2023/08/17 10:24:47;;;;;;;13.20;11.90;;;27.90;99.90;;;;;;4822992;29;20457;-81
2023/08/17 10:27:13;;;;;;;13.00;11.80;;;27.90;99.90;;;;;;4822823;29;20463;-81
2023/08/17 10:29:42;;;;;;;13.40;12.23;;;28.00;99.90;;;;;;4809628;29;20475;-80
2023/08/17 10:32:07;;;;;;;13.90;12.70;;;27.90;99.90;;;;;;4809316;29;20456;-83
2023/08/17 10:34:35;;;;;;;13.37;12.17;;;27.90;99.90;;;;;;4821301;29;20998;-82
2023/08/17 10:37:01;;;;;;;13.83;12.63;;;28.00;99.90;;;;;;4807689;29;20287;-81
2023/08/17 10:39:28;;;;;;;13.17;11.97;;;28.10;99.90;;;;;;4822556;29;20416;-82
2023/08/17 10:41:55;;;;;;;13.53;12.00;;;28.10;99.90;;;;;;4808238;29;20455;-83
2023/08/17 10:44:50;;;;;;;12.03;11.03;;;28.20;99.90;;;;;;4813217;29;20812;-81
2023/08/17 10:47:36;;;;;;;18.50;12.97;;;28.20;99.90;;;;;;4794149;29;20454;-83
2023/08/17 10:50:06;;;;;;;13.13;12.10;;;28.20;99.90;;;;;;4807812;29;20448;-82
2023/08/17 10:52:35;;;;;;;12.77;11.77;;;28.30;99.90;;;;;;4822798;29;20482;-83
2023/08/17 10:55:12;;;;;;;13.33;12.10;;;28.40;99.90;;;;;;4831807;29;20485;-83
2023/08/17 10:57:42;;;;;;;12.40;11.50;;;28.40;99.90;;;;;;4828194;29;20941;-83
2023/08/17 11:00:21;;;;;;;12.70;11.80;;;28.50;99.90;;;;;;4830251;29;20959;-81
2023/08/17 11:02:58;;;;;;;12.40;11.47;;;28.50;99.90;;;;;;4830010;29;20626;-81
2023/08/17 11:05:55;;;;;;;13.07;12.03;;;28.60;99.90;;;;;;4812718;29;20469;-83
2023/08/17 11:08:43;;;;;;;12.30;11.10;;;28.60;99.90;;;;;;4822030;29;20554;-82
2023/08/17 11:11:13;;;;;;;12.93;11.63;;;28.70;99.90;;;;;;4815654;29;20464;-83
2023/08/17 11:13:39;;;;;;;11.80;10.90;;;28.70;99.90;;;;;;4830058;29;20470;-81
2023/08/17 11:16:07;;;;;;;12.47;11.47;;;28.80;99.90;;;;;;4829832;29;20890;-81
2023/08/17 11:18:33;;;;;;;12.97;11.87;;;28.70;99.90;;;;;;4829738;29;20749;-81
2023/08/17 11:21:00;;;;;;;12.80;11.70;;;28.70;99.90;;;;;;4829455;29;21067;-81
2023/08/17 11:23:32;;;;;;;12.17;11.17;;;28.70;99.90;;;;;;4829667;29;20931;-83
2023/08/17 11:25:58;;;;;;;11.40;10.30;;;28.80;99.90;;;;;;4813252;29;20460;-83
2023/08/17 11:28:24;;;;;;;11.23;10.23;;;28.80;99.90;;;;;;4812396;29;20459;-81
2023/08/17 11:31:01;;;;;;;10.97;10.07;;;28.80;99.90;;;;;;4801682;29;20219;-83
2023/08/17 11:33:27;;;;;;;11.50;10.60;;;28.80;99.90;;;;;;4809289;29;20852;-83
2023/08/17 11:35:57;;;;;;;12.53;11.53;;;28.90;99.90;;;;;;4825213;29;20749;-80
2023/08/17 11:38:23;;;;;;;11.40;10.50;;;28.90;99.90;;;;;;4818847;29;20763;-83
2023/08/17 11:40:49;;;;;;;11.30;10.40;;;28.90;99.90;;;;;;4809817;29;20455;-83
2023/08/17 11:43:16;;;;;;;11.40;10.47;;;28.80;99.90;;;;;;4811493;29;20533;-81
2023/08/17 11:45:41;;;;;;;12.03;10.93;;;28.90;99.90;;;;;;4810041;29;20445;-81
2023/08/17 11:48:09;;;;;;;11.07;10.07;;;28.80;99.90;;;;;;4810064;29;20973;-81
2023/08/17 11:50:35;;;;;;;11.30;10.40;;;28.90;99.90;;;;;;4813634;29;20205;-84
2023/08/17 11:53:04;;;;;;;10.70;9.90;;;28.90;99.90;;;;;;4828222;29;20494;-83
2023/08/17 11:55:30;;;;;;;11.40;10.40;;;28.80;99.90;;;;;;4813999;29;20972;-80
2023/08/17 11:57:55;;;;;;;11.97;10.87;;;28.80;99.90;;;;;;4814675;29;20811;-82
2023/08/17 12:00:22;;;;;;;11.73;10.73;;;28.80;99.90;;;;;;4815568;29;20267;-81
2023/08/17 12:02:52;;;;;;;12.00;10.73;;;28.80;99.90;;;;;;4815878;29;20746;-83
2023/08/17 12:05:28;;;;;;;11.83;10.93;;;28.90;99.90;;;;;;4814962;29;20524;-83
2023/08/17 12:07:55;;;;;;;12.63;11.53;;;28.90;99.90;;;;;;4814698;29;20466;-81
2023/08/17 12:10:22;;;;;;;12.70;11.70;;;28.90;99.90;;;;;;4812552;29;20482;-81
2023/08/17 12:12:48;;;;;;;12.57;11.33;;;29.00;99.90;;;;;;4811016;29;20484;-81
2023/08/17 12:15:17;;;;;;;12.43;11.27;;;29.10;99.90;;;;;;4827714;29;20486;-81
2023/08/17 12:17:47;;;;;;;13.43;12.13;;;29.10;99.90;;;;;;4814720;29;20488;-82
2023/08/17 12:20:17;;;;;;;12.93;11.83;;;29.20;99.90;;;;;;4811750;29;20908;-81
2023/08/17 12:22:43;;;;;;;14.43;13.23;;;29.20;99.90;;;;;;4814046;29;20666;-81
2023/08/17 12:25:09;;;;;;;14.00;12.60;;;29.20;99.90;;;;;;4813339;29;20440;-83
2023/08/17 12:27:36;;;;;;;14.30;13.20;;;29.20;99.90;;;;;;4813058;29;20199;-81